< < Back
Terminal Aerodrome Forecast


Current Version              Previous Versions:   1  2  3  4  5  6  7  8  9  

Terminal Aerodrome Forecast

162
FTUS42 KFFC 012300
TAFPDK
TAF
KPDK 012320Z 0200/0224 VRB05KT P6SM VCTS SCT050CB BKN150
     FM020100 00000KT P6SM FEW050 SCT150 BKN250
     FM021400 29005KT P6SM SCT035 SCT150
     FM021800 27006KT P6SM SCT050 SCT150 PROB30 0219/0223 VRB15G30KT
      5SM TSRA BKN045CB=



Latest METAR

062
SAUS70 KWBC 021400 RRJ
MTRPDK
METAR KPDK 021353Z VRB04KT 10SM CLR 27/21 A3013 RMK AO2 SLP185
T02670211


USA.gov is the U.S. government's official web portal to all federal, state and local government web resources and services.